Leonville, Louisiana
Current Conditions -  °F | °C
As of 8:15 AM on Thursday 29 Jan 2015 (Local Time) from KOPL Reporting Station
Overcast Overcast  
Wind Chill: 55°   Ceiling: 1200
Heat Index: 55°   Visibility: 7mi
Dew Point: 53°   Wind: 5mph
Humidity: 95%   Direction: 190°S
Pressure: 30.22"   Gusts: NA
Location:  30.47°N, 91.98°W
Report Text: KOPL 291415Z AUTO 19004KT 7SM OVC012 13/12 A3022 RMK AO2 T01250117
Loading
Personal Weather Stations






























Interactive Weather Map New forecast layout! Learn more

10-Day Weather Forecast

Advertisements
Track Severe Weather on mobile